createdAt,value
2019-05-25T00:02:05.757Z,7.93
2019-05-25T00:04:36.023Z,4.87
2019-05-25T00:07:06.562Z,6.43
2019-05-25T00:09:36.624Z,6.80
2019-05-25T00:12:06.640Z,4.57
2019-05-25T00:14:37.113Z,6.17
2019-05-25T00:17:07.028Z,6.07
2019-05-25T00:19:36.898Z,5.87
2019-05-25T00:22:06.938Z,8.07
2019-05-25T00:24:36.887Z,6.80
2019-05-25T00:27:06.849Z,6.80
2019-05-25T00:29:36.718Z,5.20
2019-05-25T00:32:06.684Z,5.37
2019-05-25T00:34:36.685Z,6.53
2019-05-25T00:37:06.562Z,11.03
2019-05-25T00:39:36.873Z,7.43
2019-05-25T00:42:06.834Z,6.87
2019-05-25T00:44:36.741Z,5.13
2019-05-25T00:47:06.703Z,6.50
2019-05-25T00:49:36.661Z,5.57
2019-05-25T00:52:06.624Z,4.83
2019-05-25T00:54:36.770Z,4.70
2019-05-25T00:57:06.714Z,6.50
2019-05-25T00:59:36.675Z,7.47
2019-05-25T01:02:06.530Z,7.20
2019-05-25T01:04:36.685Z,6.43
2019-05-25T01:07:06.609Z,6.77
2019-05-25T01:09:36.597Z,7.23
2019-05-25T01:12:06.826Z,9.57
2019-05-25T01:14:37.076Z,7.60
2019-05-25T01:17:08.039Z,5.37
2019-05-25T01:19:38.080Z,8.63
2019-05-25T01:22:08.408Z,6.60
2019-05-25T01:24:44.357Z,6.27
2019-05-25T01:27:09.993Z,9.17
2019-05-25T01:29:39.910Z,8.40
2019-05-25T01:32:09.740Z,6.87
2019-05-25T01:34:40.793Z,8.50
2019-05-25T01:37:10.710Z,6.70
2019-05-25T01:39:41.745Z,6.57
2019-05-25T01:42:11.678Z,7.90
2019-05-25T01:44:41.948Z,9.40
2019-05-25T01:47:11.927Z,6.87
2019-05-25T01:49:42.182Z,7.63
2019-05-25T01:52:12.138Z,10.43
2019-05-25T01:54:41.960Z,8.77
2019-05-25T01:57:11.839Z,9.83
2019-05-25T01:59:41.794Z,10.33
2019-05-25T02:02:11.745Z,7.97
2019-05-25T02:04:41.654Z,9.87
2019-05-25T02:07:11.894Z,8.30
2019-05-25T02:09:41.771Z,9.10
2019-05-25T02:12:11.743Z,10.13
2019-05-25T02:14:41.635Z,11.97
2019-05-25T02:17:11.607Z,8.33
2019-05-25T02:19:41.543Z,8.77
2019-05-25T02:22:11.713Z,9.20
2019-05-25T02:24:42.083Z,13.10
2019-05-25T02:27:12.056Z,10.80
2019-05-25T02:29:42.030Z,12.23
2019-05-25T02:32:11.986Z,10.97
2019-05-25T02:34:42.136Z,9.57
2019-05-25T02:37:12.161Z,12.47
2019-05-25T02:39:42.144Z,14.37
2019-05-25T02:42:12.126Z,9.40
2019-05-25T02:44:42.177Z,13.20
2019-05-25T02:47:12.136Z,13.40
2019-05-25T02:49:42.115Z,11.70
2019-05-25T02:52:12.423Z,12.23
2019-05-25T02:54:42.282Z,11.17
2019-05-25T02:57:12.093Z,10.03
2019-05-25T02:59:42.057Z,12.03
2019-05-25T03:02:12.017Z,11.53
2019-05-25T03:04:41.978Z,12.73
2019-05-25T03:07:13.216Z,15.47
2019-05-25T03:09:45.717Z,12.90
2019-05-25T03:12:16.066Z,12.30
2019-05-25T03:14:46.034Z,11.23
2019-05-25T03:17:16.148Z,12.17
2019-05-25T03:19:46.034Z,15.10
2019-05-25T03:22:16.010Z,14.27
2019-05-25T03:24:45.941Z,12.10
2019-05-25T03:27:15.841Z,9.97
2019-05-25T03:29:45.804Z,14.63
2019-05-25T03:32:16.857Z,13.03
2019-05-25T03:34:46.829Z,11.47
2019-05-25T03:37:17.051Z,11.17
2019-05-25T03:39:46.942Z,11.97
2019-05-25T03:42:16.920Z,8.70
2019-05-25T03:44:46.805Z,11.50
2019-05-25T03:47:16.782Z,7.80
2019-05-25T03:49:46.735Z,11.77
2019-05-25T03:52:16.966Z,10.97
2019-05-25T03:54:47.270Z,8.73
2019-05-25T03:57:18.154Z,12.13
2019-05-25T03:59:49.762Z,12.87
2019-05-25T04:02:19.751Z,11.37
2019-05-25T04:04:49.551Z,12.93
2019-05-25T04:07:19.550Z,14.00
2019-05-25T04:09:49.536Z,10.43
2019-05-25T04:12:19.472Z,10.00
2019-05-25T04:14:49.634Z,9.07
2019-05-25T04:17:19.508Z,14.43
2019-05-25T04:19:49.453Z,10.17
2019-05-25T04:22:19.454Z,11.07
2019-05-25T04:24:49.543Z,9.83
2019-05-25T04:27:20.163Z,11.27
2019-05-25T04:29:50.102Z,10.97
2019-05-25T04:32:20.458Z,10.23
2019-05-25T04:34:50.319Z,8.43
2019-05-25T04:37:20.241Z,7.67
2019-05-25T04:39:50.186Z,8.03
2019-05-25T04:42:20.151Z,7.43
2019-05-25T04:44:50.502Z,8.47
2019-05-25T04:47:26.922Z,9.23
2019-05-25T04:49:52.265Z,12.07
2019-05-25T04:52:22.226Z,11.23
2019-05-25T04:54:52.186Z,9.43
2019-05-25T04:57:22.158Z,14.37
2019-05-25T04:59:52.132Z,10.73
2019-05-25T05:02:22.373Z,12.47
2019-05-25T05:04:52.275Z,8.60
2019-05-25T05:07:22.233Z,16.37
2019-05-25T05:10:02.165Z,9.47
2019-05-25T05:12:24.742Z,10.47
2019-05-25T05:14:56.561Z,10.97
2019-05-25T05:17:26.266Z,8.83
2019-05-25T05:19:56.155Z,7.53
2019-05-25T05:22:26.138Z,11.10
2019-05-25T05:24:56.520Z,8.60
2019-05-25T05:27:26.320Z,8.33
2019-05-25T05:29:56.306Z,10.97
2019-05-25T05:32:27.765Z,9.00
2019-05-25T05:34:59.072Z,7.97
2019-05-25T05:37:29.985Z,9.90
2019-05-25T05:40:00.647Z,10.63
2019-05-25T05:42:32.913Z,8.33
2019-05-25T05:45:04.246Z,10.37
2019-05-25T05:47:36.461Z,9.90
2019-05-25T05:50:07.809Z,14.03
2019-05-25T05:52:39.061Z,9.47
2019-05-25T05:55:12.058Z,8.97
2019-05-25T05:57:42.089Z,8.93
2019-05-25T06:00:12.138Z,9.00
2019-05-25T06:02:42.006Z,8.47
2019-05-25T06:05:11.950Z,9.63
2019-05-25T06:07:41.916Z,9.37
2019-05-25T06:10:11.858Z,9.07
2019-05-25T06:12:41.730Z,8.77
2019-05-25T06:15:12.031Z,7.20
2019-05-25T06:17:41.914Z,10.90
2019-05-25T06:20:12.208Z,7.78
2019-05-25T06:22:42.194Z,9.00
2019-05-25T06:25:12.247Z,9.37
2019-05-25T06:27:43.499Z,8.60
2019-05-25T06:30:14.118Z,9.03
2019-05-25T06:32:44.090Z,7.10
2019-05-25T06:35:14.339Z,8.57
2019-05-25T06:37:44.375Z,9.23
2019-05-25T06:40:14.778Z,6.67
2019-05-25T06:42:45.070Z,11.30
2019-05-25T06:45:15.537Z,10.13
2019-05-25T06:47:45.556Z,6.97
2019-05-25T06:50:16.313Z,10.38
2019-05-25T06:52:47.187Z,11.00
2019-05-25T06:55:17.233Z,8.90
2019-05-25T06:57:47.173Z,6.93
2019-05-25T07:00:19.506Z,8.43
2019-05-25T07:02:49.742Z,6.80
2019-05-25T07:05:19.683Z,5.73
2019-05-25T07:07:49.575Z,12.50
2019-05-25T07:10:19.634Z,8.70
2019-05-25T07:12:49.898Z,9.40
2019-05-25T07:15:20.255Z,11.60
2019-05-25T07:17:50.561Z,7.53
2019-05-25T07:20:20.760Z,8.70
2019-05-25T07:22:50.860Z,12.67
2019-05-25T07:25:21.206Z,8.53
2019-05-25T07:27:59.885Z,16.30
2019-05-25T07:30:23.214Z,11.10
2019-05-25T07:32:53.590Z,8.93
2019-05-25T07:35:24.523Z,10.60
2019-05-25T07:37:54.588Z,11.70
2019-05-25T07:40:24.472Z,10.17
2019-05-25T07:42:54.510Z,8.03
2019-05-25T07:45:24.536Z,7.77
2019-05-25T07:47:54.641Z,9.50
2019-05-25T07:50:24.741Z,12.05
2019-05-25T07:52:55.066Z,10.70
2019-05-25T07:55:25.037Z,9.07
2019-05-25T07:57:55.178Z,9.67
2019-05-25T08:00:25.314Z,12.55
2019-05-25T08:02:55.186Z,11.80
2019-05-25T08:05:25.040Z,10.37
2019-05-25T08:07:55.014Z,11.00
2019-05-25T08:10:24.957Z,13.93
2019-05-25T08:12:55.258Z,10.18
2019-05-25T08:15:26.965Z,11.33
2019-05-25T08:17:57.000Z,11.75
2019-05-25T08:20:27.207Z,10.58
2019-05-25T08:22:57.094Z,10.32
2019-05-25T08:25:27.040Z,9.13
2019-05-25T08:27:56.960Z,10.10
2019-05-25T08:30:27.003Z,7.78
2019-05-25T08:32:57.199Z,8.30
2019-05-25T08:35:27.201Z,9.90
2019-05-25T08:37:57.474Z,10.20
2019-05-25T08:40:27.346Z,8.60
2019-05-25T08:42:57.324Z,11.25
2019-05-25T08:45:27.293Z,9.15
2019-05-25T08:47:57.620Z,8.35
2019-05-25T08:50:37.593Z,6.87
2019-05-25T08:52:59.425Z,8.78
2019-05-25T08:55:29.370Z,11.43
2019-05-25T08:57:59.586Z,5.42
2019-05-25T09:00:29.533Z,6.08
2019-05-25T09:02:59.489Z,7.83
2019-05-25T09:05:29.512Z,6.25
2019-05-25T09:07:59.327Z,7.33
2019-05-25T09:10:29.206Z,7.65
2019-05-25T09:12:59.544Z,8.13
2019-05-25T09:15:29.524Z,9.73
2019-05-25T09:17:59.562Z,8.03
2019-05-25T09:20:29.509Z,5.87
2019-05-25T09:22:59.466Z,6.97
2019-05-25T09:25:29.566Z,6.50
2019-05-25T09:27:59.523Z,9.93
2019-05-25T09:30:29.552Z,8.30
2019-05-25T09:32:59.736Z,4.92
2019-05-25T09:35:29.648Z,5.78
2019-05-25T09:37:59.693Z,3.80
2019-05-25T09:40:29.636Z,6.60
2019-05-25T09:42:59.616Z,5.80
2019-05-25T09:45:29.601Z,6.80
2019-05-25T09:47:59.589Z,4.50
2019-05-25T09:50:29.548Z,6.50
2019-05-25T09:53:02.541Z,6.37
2019-05-25T09:55:32.581Z,8.98
2019-05-25T09:58:02.668Z,5.75
2019-05-25T10:00:32.608Z,5.78
2019-05-25T10:03:02.597Z,9.35
2019-05-25T10:05:32.910Z,6.62
2019-05-25T10:08:02.833Z,8.40
2019-05-25T10:10:33.046Z,6.28
2019-05-25T10:13:03.021Z,6.92
2019-05-25T10:15:32.977Z,5.90
2019-05-25T10:18:02.948Z,6.80
2019-05-25T10:20:32.908Z,5.92
2019-05-25T10:23:02.882Z,7.90
2019-05-25T10:25:32.758Z,8.75
2019-05-25T10:28:02.722Z,6.97
2019-05-25T10:30:33.740Z,5.78
2019-05-25T10:33:03.634Z,7.83
2019-05-25T10:35:33.738Z,6.67
2019-05-25T10:38:03.771Z,6.97
2019-05-25T10:40:33.743Z,8.05
2019-05-25T10:43:03.744Z,7.87
2019-05-25T10:45:33.633Z,7.70
2019-05-25T10:48:04.039Z,5.58
2019-05-25T10:50:33.929Z,6.78
2019-05-25T10:53:03.873Z,8.10
2019-05-25T10:55:33.860Z,7.00
2019-05-25T10:58:03.822Z,7.37
2019-05-25T11:00:33.876Z,6.40
2019-05-25T11:03:03.810Z,9.35
2019-05-25T11:05:33.958Z,8.45
2019-05-25T11:08:03.815Z,6.55
2019-05-25T11:10:33.804Z,6.85
2019-05-25T11:13:03.792Z,6.50
2019-05-25T11:15:33.744Z,7.70
2019-05-25T11:18:03.826Z,7.67
2019-05-25T11:20:33.833Z,7.55
2019-05-25T11:23:04.095Z,7.83
2019-05-25T11:25:34.129Z,9.75
2019-05-25T11:28:04.103Z,6.87
2019-05-25T11:30:34.076Z,6.92
2019-05-25T11:33:04.100Z,8.53
2019-05-25T11:35:34.381Z,8.65
2019-05-25T11:38:04.314Z,7.58
2019-05-25T11:40:34.198Z,9.88
2019-05-25T11:43:04.165Z,6.85
2019-05-25T11:45:34.105Z,7.25
2019-05-25T11:48:03.986Z,5.95
2019-05-25T11:50:33.880Z,8.35
2019-05-25T11:53:05.900Z,10.18
2019-05-25T11:55:35.507Z,6.33
2019-05-25T11:58:05.507Z,6.90
2019-05-25T12:00:35.547Z,6.37
2019-05-25T12:03:05.522Z,8.10
2019-05-25T12:05:35.485Z,5.62
2019-05-25T12:08:05.613Z,7.40
2019-05-25T12:10:35.632Z,5.75
2019-05-25T12:13:05.718Z,10.28
2019-05-25T12:15:35.758Z,8.60
2019-05-25T12:18:05.889Z,7.72
2019-05-25T12:20:36.345Z,8.25
2019-05-25T12:23:06.864Z,6.10
2019-05-25T12:25:36.916Z,5.37
2019-05-25T12:28:06.929Z,6.25
2019-05-25T12:30:40.643Z,7.47
2019-05-25T12:33:08.703Z,8.15
2019-05-25T12:35:38.641Z,8.55
2019-05-25T12:38:08.451Z,6.90
2019-05-25T12:40:52.833Z,6.78
2019-05-25T12:43:10.036Z,8.00
2019-05-25T12:45:42.141Z,8.80
2019-05-25T12:48:11.582Z,7.72
2019-05-25T12:50:41.630Z,8.40
2019-05-25T12:53:11.498Z,9.48
2019-05-25T12:55:41.376Z,7.10
2019-05-25T12:58:11.255Z,7.83
2019-05-25T13:00:55.197Z,7.30
2019-05-25T13:03:12.853Z,7.83
2019-05-25T13:05:42.785Z,5.75
2019-05-25T13:08:12.753Z,10.50
2019-05-25T13:10:42.795Z,6.67
2019-05-25T13:13:13.925Z,6.17
2019-05-25T13:15:43.922Z,8.50
2019-05-25T13:18:13.784Z,7.67
2019-05-25T13:20:43.656Z,6.62
2019-05-25T13:23:14.763Z,8.48
2019-05-25T13:25:44.661Z,7.47
2019-05-25T13:28:14.926Z,8.53
2019-05-25T13:30:44.959Z,9.90
2019-05-25T13:33:14.909Z,9.13
2019-05-25T13:35:44.871Z,9.75
2019-05-25T13:38:15.092Z,6.80
2019-05-25T13:40:45.494Z,6.92
2019-05-25T13:43:15.348Z,7.22
2019-05-25T13:45:46.179Z,7.03
2019-05-25T13:48:16.186Z,5.78
2019-05-25T13:50:46.071Z,8.38
2019-05-25T13:53:16.045Z,9.33
2019-05-25T13:55:46.010Z,5.58
2019-05-25T13:58:17.481Z,6.70
2019-05-25T14:00:47.452Z,5.70
2019-05-25T14:03:17.490Z,7.30
2019-05-25T14:05:47.355Z,5.03
2019-05-25T14:08:17.450Z,7.75
2019-05-25T14:10:47.433Z,6.75
2019-05-25T14:13:17.676Z,7.85
2019-05-25T14:15:47.480Z,8.88
2019-05-25T14:18:17.356Z,8.03
2019-05-25T14:20:47.306Z,7.08
2019-05-25T14:23:17.546Z,6.30
2019-05-25T14:25:47.797Z,9.25
2019-05-25T14:28:17.773Z,9.83
2019-05-25T14:30:47.729Z,8.43
2019-05-25T14:33:17.615Z,8.33
2019-05-25T14:35:47.472Z,5.55
2019-05-25T14:38:17.336Z,5.40
2019-05-25T14:40:47.230Z,5.95
2019-05-25T14:43:17.197Z,4.22
2019-05-25T14:45:47.242Z,3.72
2019-05-25T14:48:17.126Z,3.58
2019-05-25T14:50:47.541Z,2.65
2019-05-25T14:53:17.519Z,3.37
2019-05-25T14:55:47.773Z,4.67
2019-05-25T14:58:17.999Z,3.08
2019-05-25T15:00:48.030Z,4.80
2019-05-25T15:03:18.112Z,2.95
2019-05-25T15:05:48.583Z,3.58
2019-05-25T15:08:18.600Z,4.22
2019-05-25T15:10:48.591Z,4.75
2019-05-25T15:13:18.681Z,3.22
2019-05-25T15:15:48.651Z,3.90
2019-05-25T15:18:18.592Z,3.72
2019-05-25T15:20:48.483Z,4.25
2019-05-25T15:23:18.790Z,4.85
2019-05-25T15:25:48.606Z,4.67
2019-05-25T15:28:18.651Z,3.87
2019-05-25T15:30:48.558Z,3.42
2019-05-25T15:33:18.996Z,3.72
2019-05-25T15:35:49.935Z,5.37
2019-05-25T15:38:20.006Z,4.00
2019-05-25T15:40:49.893Z,3.50
2019-05-25T15:43:19.888Z,4.25
2019-05-25T15:45:49.872Z,5.30
2019-05-25T15:48:19.840Z,3.60
2019-05-25T15:50:50.007Z,5.17
2019-05-25T15:53:19.933Z,4.00
2019-05-25T15:55:50.176Z,9.63
2019-05-25T15:58:20.205Z,5.10
2019-05-25T16:00:51.821Z,3.98
2019-05-25T16:03:21.851Z,5.03
2019-05-25T16:05:51.914Z,3.02
2019-05-25T16:08:22.047Z,3.70
2019-05-25T16:10:52.392Z,5.47
2019-05-25T16:13:22.332Z,5.42
2019-05-25T16:15:52.529Z,2.83
2019-05-25T16:18:22.481Z,2.87
2019-05-25T16:20:52.792Z,3.60
2019-05-25T16:23:22.683Z,2.87
2019-05-25T16:25:52.646Z,4.78
2019-05-25T16:28:22.532Z,4.95
2019-05-25T16:30:52.501Z,2.98
2019-05-25T16:33:22.478Z,5.12
2019-05-25T16:35:52.383Z,2.92
2019-05-25T16:38:23.334Z,2.85
2019-05-25T16:40:53.956Z,2.72
2019-05-25T16:43:23.956Z,3.33
2019-05-25T16:45:53.903Z,3.17
2019-05-25T16:48:23.858Z,2.65
2019-05-25T16:50:53.746Z,2.37
2019-05-25T16:53:23.706Z,2.70
2019-05-25T16:55:54.795Z,2.37
2019-05-25T16:58:25.118Z,3.35
2019-05-25T17:00:55.083Z,3.90
2019-05-25T17:03:28.489Z,2.75
2019-05-25T17:05:56.582Z,3.70
2019-05-25T17:08:26.608Z,3.83
2019-05-25T17:10:56.576Z,1.80
2019-05-25T17:13:26.911Z,2.35
2019-05-25T17:15:56.702Z,2.58
2019-05-25T17:18:26.632Z,3.27
2019-05-25T17:20:56.763Z,2.02
2019-05-25T17:23:26.718Z,2.02
2019-05-25T17:25:56.685Z,3.37
2019-05-25T17:28:26.742Z,1.95
2019-05-25T17:30:56.742Z,2.55
2019-05-25T17:33:36.173Z,1.67
2019-05-25T17:35:58.277Z,2.08
2019-05-25T17:38:28.169Z,2.12
2019-05-25T17:40:58.280Z,1.55
2019-05-25T17:43:28.304Z,2.40
2019-05-25T17:45:58.111Z,2.75
2019-05-25T17:48:28.083Z,2.30
2019-05-25T17:50:58.040Z,2.67
2019-05-25T17:53:28.032Z,2.05
2019-05-25T17:55:58.077Z,1.98
2019-05-25T17:58:27.971Z,1.85
2019-05-25T18:00:57.947Z,1.85
2019-05-25T18:03:27.911Z,2.40
2019-05-25T18:05:57.940Z,3.42
2019-05-25T18:08:27.866Z,2.67
2019-05-25T18:10:57.765Z,4.28
2019-05-25T18:13:29.117Z,4.12
2019-05-25T18:15:59.346Z,7.55
2019-05-25T18:18:29.350Z,5.12
2019-05-25T18:20:59.305Z,4.80
2019-05-25T18:23:29.219Z,5.87
2019-05-25T18:25:59.175Z,7.53
2019-05-25T18:28:29.437Z,6.78
2019-05-25T18:30:59.401Z,2.35
2019-05-25T18:33:29.298Z,3.30
2019-05-25T18:35:59.326Z,2.62
2019-05-25T18:38:29.223Z,2.90
2019-05-25T18:40:59.279Z,2.02
2019-05-25T18:43:29.259Z,2.27
2019-05-25T18:45:59.303Z,3.20
2019-05-25T18:48:29.260Z,3.60
2019-05-25T18:50:59.179Z,2.70
2019-05-25T18:53:29.116Z,2.62
2019-05-25T18:55:59.001Z,3.17
2019-05-25T18:58:28.938Z,2.80
2019-05-25T19:00:58.903Z,2.70
2019-05-25T19:03:29.039Z,4.00
2019-05-25T19:05:59.978Z,2.15
2019-05-25T19:08:29.942Z,2.98
2019-05-25T19:10:59.886Z,2.98
2019-05-25T19:13:29.968Z,2.22
2019-05-25T19:15:59.869Z,2.83
2019-05-25T19:18:29.903Z,3.37
2019-05-25T19:20:59.780Z,3.35
2019-05-25T19:23:29.677Z,3.95
2019-05-25T19:26:00.086Z,4.12
2019-05-25T19:28:30.133Z,2.30
2019-05-25T19:31:00.091Z,3.47
2019-05-25T19:33:29.961Z,3.67
2019-05-25T19:35:59.814Z,3.62
2019-05-25T19:38:29.770Z,2.27
2019-05-25T19:40:59.602Z,2.98
2019-05-25T19:43:29.559Z,2.58
2019-05-25T19:45:59.789Z,4.97
2019-05-25T19:48:29.740Z,3.30
2019-05-25T19:50:59.698Z,3.47
2019-05-25T19:53:30.340Z,2.40
2019-05-25T19:56:00.289Z,3.83
2019-05-25T19:58:30.264Z,3.17
2019-05-25T20:01:00.199Z,2.50
2019-05-25T20:03:30.134Z,3.35
2019-05-25T20:06:00.044Z,5.83
2019-05-25T20:08:30.992Z,4.12
2019-05-25T20:11:00.856Z,3.25
2019-05-25T20:13:31.881Z,3.72
2019-05-25T20:16:01.935Z,4.33
2019-05-25T20:18:31.812Z,3.55
2019-05-25T20:21:01.770Z,5.42
2019-05-25T20:23:31.716Z,7.97
2019-05-25T20:26:01.564Z,4.30
2019-05-25T20:28:31.548Z,5.05
2019-05-25T20:31:01.470Z,5.13
2019-05-25T20:33:34.642Z,5.97
2019-05-25T20:36:03.061Z,5.17
2019-05-25T20:38:33.321Z,6.42
2019-05-25T20:41:03.262Z,14.93
2019-05-25T20:43:33.149Z,15.30
2019-05-25T20:46:03.092Z,13.13
2019-05-25T20:48:33.032Z,12.58
2019-05-25T20:51:03.009Z,12.25
2019-05-25T20:53:33.014Z,9.30
2019-05-25T20:56:02.918Z,7.67
2019-05-25T20:58:32.846Z,8.70
2019-05-25T21:01:02.859Z,11.80
2019-05-25T21:03:32.799Z,9.08
2019-05-25T21:06:02.746Z,7.87
2019-05-25T21:08:32.693Z,11.05
2019-05-25T21:11:02.737Z,6.30
2019-05-25T21:13:32.796Z,6.47
2019-05-25T21:16:04.944Z,4.60
2019-05-25T21:18:34.888Z,4.70
2019-05-25T21:21:04.948Z,9.65
2019-05-25T21:23:34.820Z,6.83
2019-05-25T21:26:04.756Z,5.57
2019-05-25T21:28:34.668Z,9.33
2019-05-25T21:31:04.619Z,9.48
2019-05-25T21:33:34.563Z,10.75
2019-05-25T21:36:08.628Z,14.30
2019-05-25T21:38:36.373Z,10.28
2019-05-25T21:41:06.619Z,10.68
2019-05-25T21:43:36.591Z,9.65
2019-05-25T21:46:06.581Z,11.17
2019-05-25T21:48:36.894Z,11.70
2019-05-25T21:51:07.825Z,12.50
2019-05-25T21:53:37.789Z,17.02
2019-05-25T21:56:07.670Z,10.20
2019-05-25T21:58:37.895Z,11.17
2019-05-25T22:01:08.131Z,9.65
2019-05-25T22:03:38.367Z,12.82
2019-05-25T22:06:23.240Z,10.80
2019-05-25T22:08:40.092Z,12.33
2019-05-25T22:11:09.974Z,12.23
2019-05-25T22:13:39.860Z,12.10
2019-05-25T22:16:09.809Z,11.70
2019-05-25T22:18:39.678Z,12.57
2019-05-25T22:21:09.498Z,10.50
2019-05-25T22:23:39.530Z,9.40
2019-05-25T22:26:09.462Z,9.63
2019-05-25T22:28:44.674Z,10.43
2019-05-25T22:31:11.154Z,9.70
2019-05-25T22:33:41.002Z,14.27
2019-05-25T22:36:10.818Z,10.60
2019-05-25T22:38:40.799Z,14.73
2019-05-25T22:41:10.777Z,10.07
2019-05-25T22:43:40.764Z,11.03
2019-05-25T22:46:10.713Z,11.00
2019-05-25T22:48:40.621Z,8.07
2019-05-25T22:51:10.638Z,8.27
2019-05-25T22:53:41.592Z,8.13
2019-05-25T22:56:11.541Z,11.20
2019-05-25T22:58:41.490Z,6.93
2019-05-25T23:01:11.710Z,8.57
2019-05-25T23:03:41.987Z,9.97
2019-05-25T23:06:11.996Z,9.07
2019-05-25T23:08:41.789Z,9.67
2019-05-25T23:11:11.766Z,10.23
2019-05-25T23:13:41.644Z,9.97
2019-05-25T23:16:13.906Z,8.30
2019-05-25T23:18:43.945Z,9.77
2019-05-25T23:21:13.900Z,8.20
2019-05-25T23:23:43.894Z,7.90
2019-05-25T23:26:13.848Z,11.10
2019-05-25T23:28:43.787Z,7.87
2019-05-25T23:31:13.778Z,8.20
2019-05-25T23:33:43.662Z,11.10
2019-05-25T23:36:13.728Z,8.17
2019-05-25T23:38:45.081Z,13.87
2019-05-25T23:41:15.033Z,7.73
2019-05-25T23:43:44.901Z,10.57
2019-05-25T23:46:14.868Z,10.80
2019-05-25T23:48:44.813Z,10.80
2019-05-25T23:51:14.858Z,9.60
2019-05-25T23:53:44.813Z,8.83
2019-05-25T23:56:14.788Z,10.83
2019-05-25T23:58:44.958Z,9.00
